Time;durP1;ratioP1;P1;durP2;ratioP2;P2;SDS_P1;SDS_P2;PMS_P1;PMS_P2;Temp;Humidity;BMP_temperature;BMP_pressure;BME280_temperature;BME280_humidity;BME280_pressure;Samples;Min_cycle;Max_cycle;Signal;HPM_P1;HPM_P2
2023/12/03 00:00:08;;;;;;;17.40;16.40;;;1.80;20.50;;;;;;5013754;28;20999;-45
2023/12/03 00:02:35;;;;;;;15.70;14.70;;;1.50;21.10;;;;;;5030166;28;20427;-47
2023/12/03 00:05:02;;;;;;;16.27;15.17;;;1.50;21.00;;;;;;5013240;28;20423;-47
2023/12/03 00:07:31;;;;;;;17.20;16.00;;;1.50;21.60;;;;;;5014043;28;20468;-46
2023/12/03 00:09:57;;;;;;;16.80;15.80;;;1.50;21.90;;;;;;5022434;28;20423;-46
2023/12/03 00:12:23;;;;;;;16.93;15.93;;;1.80;22.00;;;;;;5027290;28;20419;-47
2023/12/03 00:14:49;;;;;;;16.13;15.13;;;1.90;21.70;;;;;;5029773;28;20426;-47
2023/12/03 00:17:15;;;;;;;15.23;14.33;;;1.80;21.80;;;;;;5013306;28;20420;-47
2023/12/03 00:19:41;;;;;;;16.37;15.27;;;2.10;20.90;;;;;;5029602;28;20426;-47
2023/12/03 00:22:07;;;;;;;16.13;15.07;;;1.80;20.80;;;;;;5029737;28;20599;-47
2023/12/03 00:24:33;;;;;;;17.00;15.93;;;1.70;21.30;;;;;;5029586;28;20262;-48
2023/12/03 00:26:59;;;;;;;14.47;13.67;;;1.50;21.50;;;;;;5013642;28;20510;-47
2023/12/03 00:29:25;;;;;;;16.73;15.53;;;1.30;21.90;;;;;;5028823;28;20184;-46
2023/12/03 00:31:52;;;;;;;15.20;14.20;;;1.30;22.50;;;;;;5029653;28;20509;-45
2023/12/03 00:34:18;;;;;;;16.07;15.07;;;1.40;22.60;;;;;;5012984;28;20476;-49
2023/12/03 00:36:43;;;;;;;17.10;16.00;;;1.50;22.70;;;;;;5012636;28;20422;-47
2023/12/03 00:39:09;;;;;;;15.90;14.90;;;1.60;22.40;;;;;;5013649;28;20514;-48
2023/12/03 00:41:35;;;;;;;17.63;16.00;;;1.60;21.60;;;;;;5013803;28;20900;-47
2023/12/03 00:44:00;;;;;;;17.17;16.07;;;1.40;22.10;;;;;;5013700;28;20183;-49
2023/12/03 00:46:26;;;;;;;15.37;14.43;;;1.20;22.40;;;;;;5013520;28;20180;-47
2023/12/03 00:48:52;;;;;;;15.63;14.63;;;1.10;22.90;;;;;;5013493;28;20666;-48
2023/12/03 00:51:18;;;;;;;17.10;16.10;;;0.90;22.90;;;;;;5029974;28;20188;-49
2023/12/03 00:53:44;;;;;;;15.73;14.73;;;1.00;23.30;;;;;;5029934;28;20916;-49
2023/12/03 00:56:10;;;;;;;15.63;14.63;;;1.00;23.00;;;;;;5015656;28;20246;-50
2023/12/03 00:58:36;;;;;;;16.77;15.77;;;1.10;23.30;;;;;;5033459;28;20466;-47
2023/12/03 01:01:03;;;;;;;15.67;14.67;;;1.10;23.50;;;;;;5033495;28;20455;-50
2023/12/03 01:03:28;;;;;;;15.13;14.20;;;1.10;22.90;;;;;;5017052;28;20849;-47
2023/12/03 01:05:54;;;;;;;17.70;16.50;;;0.90;23.20;;;;;;5016635;28;20491;-49
2023/12/03 01:08:20;;;;;;;16.30;15.30;;;0.80;23.80;;;;;;5016898;28;20258;-48
2023/12/03 01:10:45;;;;;;;16.67;15.67;;;0.80;24.00;;;;;;5016946;28;20251;-48
2023/12/03 01:13:11;;;;;;;16.83;15.73;;;0.70;23.40;;;;;;5033266;28;20192;-49
2023/12/03 01:15:37;;;;;;;15.30;14.30;;;0.80;23.90;;;;;;5016592;28;20177;-47
2023/12/03 01:18:02;;;;;;;15.80;14.70;;;0.90;22.90;;;;;;5016760;28;20551;-51
2023/12/03 01:20:28;;;;;;;15.70;14.80;;;1.30;23.60;;;;;;5016584;28;20235;-47
2023/12/03 01:22:54;;;;;;;15.00;14.10;;;1.50;21.50;;;;;;5016712;28;20547;-49
2023/12/03 01:25:20;;;;;;;14.10;13.30;;;1.80;22.20;;;;;;5032980;28;20271;-46
2023/12/03 01:27:46;;;;;;;15.10;14.10;;;2.20;19.90;;;;;;5032785;28;21045;-46
2023/12/03 01:30:12;;;;;;;14.20;13.40;;;2.50;19.20;;;;;;5032935;28;20455;-46
2023/12/03 01:32:39;;;;;;;14.87;13.90;;;2.60;18.10;;;;;;5016413;28;20194;-47
2023/12/03 01:35:05;;;;;;;15.00;14.10;;;2.40;17.60;;;;;;5032735;28;20522;-47
2023/12/03 01:37:31;;;;;;;14.60;13.70;;;2.00;18.60;;;;;;5016381;28;20460;-48
2023/12/03 01:39:56;;;;;;;15.60;14.60;;;1.70;18.80;;;;;;5032618;28;20541;-46
2023/12/03 01:42:24;;;;;;;15.83;14.80;;;1.60;18.70;;;;;;5032773;28;20554;-50
2023/12/03 01:44:50;;;;;;;15.03;14.10;;;1.50;18.60;;;;;;5016033;28;20180;-50
2023/12/03 01:47:17;;;;;;;15.40;14.50;;;1.50;17.80;;;;;;5032611;28;20874;-49
2023/12/03 01:49:44;;;;;;;14.97;14.07;;;1.20;18.70;;;;;;5016103;28;20423;-47
2023/12/03 01:52:10;;;;;;;13.90;13.00;;;0.90;18.90;;;;;;5033939;28;20418;-51
2023/12/03 01:54:36;;;;;;;14.80;13.77;;;0.80;19.30;;;;;;5015996;28;20417;-50
2023/12/03 01:57:02;;;;;;;15.60;14.63;;;0.80;19.00;;;;;;5016104;28;20415;-48
2023/12/03 01:59:29;;;;;;;14.90;13.90;;;0.60;19.40;;;;;;5015729;28;20183;-48
2023/12/03 02:01:54;;;;;;;15.23;14.40;;;0.50;19.80;;;;;;5028132;28;20450;-48
2023/12/03 02:04:20;;;;;;;14.93;14.03;;;0.50;20.10;;;;;;5031338;28;20611;-48
2023/12/03 02:06:46;;;;;;;15.80;14.90;;;0.50;20.10;;;;;;5033725;28;20415;-50
2023/12/03 02:09:14;;;;;;;16.20;15.20;;;0.60;20.30;;;;;;5034403;28;20697;-49
2023/12/03 02:11:40;;;;;;;15.80;14.80;;;0.60;21.00;;;;;;5034843;28;20179;-48
2023/12/03 02:14:06;;;;;;;16.58;15.48;;;0.60;19.70;;;;;;5034689;28;20591;-47
2023/12/03 02:16:34;;;;;;;15.80;14.80;;;0.80;20.30;;;;;;5034365;28;20172;-46
2023/12/03 02:19:03;;;;;;;15.48;14.52;;;0.80;20.00;;;;;;5026521;28;20426;-48
2023/12/03 02:21:29;;;;;;;15.35;14.35;;;0.90;19.60;;;;;;5034689;28;20190;-47
2023/12/03 02:23:55;;;;;;;16.25;15.25;;;0.80;20.10;;;;;;5033830;28;20184;-47
2023/12/03 02:26:20;;;;;;;17.47;16.27;;;0.80;20.70;;;;;;5034273;28;20188;-48
2023/12/03 02:28:47;;;;;;;15.50;14.40;;;0.80;20.60;;;;;;5034441;28;20633;-48
2023/12/03 02:31:14;;;;;;;16.50;15.30;;;0.90;20.70;;;;;;5033902;28;20414;-49
2023/12/03 02:33:42;;;;;;;16.33;15.27;;;0.80;21.40;;;;;;5034156;28;20414;-47
2023/12/03 02:36:08;;;;;;;16.40;15.40;;;0.90;21.30;;;;;;5033975;28;20410;-52
2023/12/03 02:38:34;;;;;;;15.90;14.90;;;0.60;21.40;;;;;;5033877;28;20430;-51
2023/12/03 02:40:59;;;;;;;15.23;14.30;;;0.70;21.20;;;;;;5034062;28;20417;-53
2023/12/03 02:43:25;;;;;;;17.03;15.97;;;0.60;21.60;;;;;;5034115;28;20537;-51
2023/12/03 02:45:51;;;;;;;16.17;15.10;;;0.80;20.90;;;;;;5033607;28;20249;-50
2023/12/03 02:48:16;;;;;;;15.20;14.30;;;0.80;20.70;;;;;;5033912;28;20204;-54
2023/12/03 02:50:42;;;;;;;16.80;15.80;;;1.00;19.60;;;;;;5033952;28;20318;-49
2023/12/03 02:53:07;;;;;;;17.00;15.80;;;1.00;20.00;;;;;;5033618;28;20270;-51
2023/12/03 02:55:33;;;;;;;16.30;15.33;;;1.00;19.90;;;;;;5033780;28;20226;-52
2023/12/03 02:57:59;;;;;;;16.33;15.30;;;1.10;19.50;;;;;;5033895;28;20176;-53
2023/12/03 03:00:24;;;;;;;15.13;14.23;;;1.10;19.10;;;;;;5030038;28;20655;-53
2023/12/03 03:02:50;;;;;;;15.20;14.20;;;0.80;18.50;;;;;;5014167;28;20177;-53
2023/12/03 03:05:15;;;;;;;15.07;14.17;;;0.80;19.70;;;;;;5013163;28;20659;-54
2023/12/03 03:07:41;;;;;;;14.80;13.80;;;0.80;19.20;;;;;;5014039;28;20203;-53
2023/12/03 03:10:07;;;;;;;16.30;15.40;;;0.70;18.90;;;;;;5013838;28;20631;-53
2023/12/03 03:12:33;;;;;;;14.75;13.95;;;0.70;19.30;;;;;;5013913;28;20578;-51
2023/12/03 03:14:58;;;;;;;15.00;14.20;;;0.50;18.40;;;;;;5013674;28;20229;-51
2023/12/03 03:17:24;;;;;;;15.93;15.07;;;0.60;19.70;;;;;;5013554;28;20271;-54
2023/12/03 03:19:49;;;;;;;15.20;14.33;;;0.80;18.90;;;;;;5013588;28;20180;-53
2023/12/03 03:22:15;;;;;;;17.10;15.93;;;0.90;18.90;;;;;;5013919;28;20184;-51
2023/12/03 03:24:41;;;;;;;15.43;14.50;;;0.70;19.10;;;;;;5016380;28;20182;-51
2023/12/03 03:27:07;;;;;;;14.97;14.07;;;0.60;19.90;;;;;;5033411;28;20195;-49
2023/12/03 03:29:35;;;;;;;15.70;14.60;;;0.60;20.00;;;;;;5029162;28;20414;-51
2023/12/03 03:32:01;;;;;;;15.43;14.43;;;0.60;20.40;;;;;;5013367;28;20172;-54
2023/12/03 03:34:27;;;;;;;14.73;13.93;;;0.70;20.20;;;;;;5013105;28;20199;-50
2023/12/03 03:36:53;;;;;;;15.87;14.90;;;0.70;20.20;;;;;;5013467;28;20175;-52
2023/12/03 03:39:18;;;;;;;13.47;12.77;;;0.80;20.10;;;;;;5013236;28;20188;-50
2023/12/03 03:41:44;;;;;;;14.77;13.87;;;1.00;19.30;;;;;;5013566;28;20691;-50
2023/12/03 03:44:09;;;;;;;14.97;14.07;;;1.10;19.30;;;;;;5031840;28;20172;-51
2023/12/03 03:46:35;;;;;;;14.60;13.80;;;1.20;18.90;;;;;;5012957;28;20188;-50
2023/12/03 03:49:01;;;;;;;13.43;12.63;;;1.30;18.60;;;;;;5013551;28;20179;-51
2023/12/03 03:51:26;;;;;;;15.30;14.30;;;1.50;18.60;;;;;;5030822;28;20199;-54
2023/12/03 03:53:52;;;;;;;14.63;13.73;;;1.50;17.90;;;;;;5013496;28;20625;-51
2023/12/03 03:56:18;;;;;;;13.93;13.13;;;1.70;17.20;;;;;;5013509;28;20204;-52
2023/12/03 03:58:43;;;;;;;14.53;13.63;;;1.60;16.30;;;;;;5013634;28;20263;-51
2023/12/03 04:01:10;;;;;;;14.10;13.30;;;1.70;17.10;;;;;;5031274;28;20180;-53
2023/12/03 04:03:36;;;;;;;14.40;13.53;;;1.70;17.10;;;;;;5029810;28;20226;-51
2023/12/03 04:06:05;;;;;;;14.10;13.20;;;1.60;17.10;;;;;;5013407;28;20423;-53
2023/12/03 04:08:32;;;;;;;15.80;14.80;;;1.70;17.20;;;;;;5030663;28;20466;-50
2023/12/03 04:11:01;;;;;;;15.30;13.97;;;1.70;17.70;;;;;;5013477;28;20422;-53
2023/12/03 04:13:26;;;;;;;14.83;14.03;;;2.00;16.90;;;;;;5030833;28;20415;-51
2023/12/03 04:15:52;;;;;;;14.13;13.33;;;2.10;17.00;;;;;;5029629;28;20419;-50
2023/12/03 04:18:17;;;;;;;15.60;14.67;;;2.30;16.30;;;;;;5013407;28;20194;-53
2023/12/03 04:20:43;;;;;;;15.17;14.27;;;2.30;15.50;;;;;;5013569;28;20172;-51
2023/12/03 04:23:09;;;;;;;18.23;15.77;;;2.10;16.70;;;;;;5030937;28;20531;-50
2023/12/03 04:25:34;;;;;;;16.10;15.20;;;2.20;17.10;;;;;;5013109;28;20187;-50
2023/12/03 04:28:01;;;;;;;16.37;15.27;;;2.40;16.30;;;;;;5029682;28;20207;-51
2023/12/03 04:30:26;;;;;;;14.93;13.97;;;2.60;15.20;;;;;;5014318;28;20466;-51
2023/12/03 04:32:52;;;;;;;15.43;14.53;;;2.00;15.80;;;;;;5033464;28;20908;-52
2023/12/03 04:35:18;;;;;;;16.40;15.30;;;2.10;16.60;;;;;;5033257;28;20609;-53
2023/12/03 04:37:45;;;;;;;17.03;15.93;;;2.10;17.10;;;;;;5016600;28;20185;-50
2023/12/03 04:40:11;;;;;;;15.40;14.50;;;1.80;17.70;;;;;;5016832;28;20253;-51
2023/12/03 04:42:37;;;;;;;15.47;14.50;;;1.50;18.60;;;;;;5016405;28;20415;-54
2023/12/03 04:45:02;;;;;;;16.57;15.50;;;1.10;19.20;;;;;;5016392;28;20419;-51
2023/12/03 04:47:29;;;;;;;15.50;14.60;;;1.20;19.70;;;;;;5016707;28;20540;-52
2023/12/03 04:49:54;;;;;;;16.57;15.57;;;1.20;19.10;;;;;;5016545;28;20282;-51
2023/12/03 04:52:20;;;;;;;15.77;14.77;;;1.10;19.30;;;;;;5016261;28;21055;-52
2023/12/03 04:54:46;;;;;;;15.50;14.60;;;1.20;19.80;;;;;;5033866;28;20533;-52
2023/12/03 04:57:12;;;;;;;16.53;15.53;;;1.30;19.40;;;;;;5016146;28;20461;-50
2023/12/03 04:59:37;;;;;;;17.90;16.73;;;1.10;20.10;;;;;;5015888;28;20238;-50
2023/12/03 05:02:03;;;;;;;16.10;15.00;;;1.00;20.60;;;;;;5016003;28;20566;-50
2023/12/03 05:04:28;;;;;;;15.87;14.90;;;1.20;20.20;;;;;;5032791;28;20270;-53
2023/12/03 05:06:54;;;;;;;16.20;15.20;;;1.00;20.40;;;;;;5015799;28;20191;-50
2023/12/03 05:09:20;;;;;;;16.77;15.77;;;0.70;20.80;;;;;;5034079;28;20168;-51
2023/12/03 05:11:45;;;;;;;16.90;15.90;;;0.60;21.20;;;;;;5016188;28;20176;-50
2023/12/03 05:14:11;;;;;;;16.90;15.80;;;0.60;21.70;;;;;;5015604;28;20271;-51
2023/12/03 05:16:37;;;;;;;18.20;17.10;;;0.50;22.10;;;;;;5033874;28;20171;-51
2023/12/03 05:19:03;;;;;;;17.67;16.57;;;0.30;22.10;;;;;;5015985;28;20871;-50
2023/12/03 05:21:28;;;;;;;16.53;15.63;;;0.20;23.30;;;;;;5015758;28;20578;-54
2023/12/03 05:23:54;;;;;;;17.20;16.10;;;0.20;22.80;;;;;;5010846;28;20185;-50
2023/12/03 05:26:20;;;;;;;17.90;16.60;;;0.20;22.20;;;;;;5015616;28;20229;-50
2023/12/03 05:28:45;;;;;;;19.20;18.00;;;0.30;22.10;;;;;;5015624;28;20201;-53
2023/12/03 05:31:11;;;;;;;16.77;15.77;;;0.30;22.50;;;;;;5011014;28;20182;-52
2023/12/03 05:33:37;;;;;;;18.80;17.43;;;0.40;22.00;;;;;;5013632;28;20166;-51
2023/12/03 05:36:03;;;;;;;17.47;16.47;;;0.40;22.40;;;;;;5013861;28;20176;-51
2023/12/03 05:38:28;;;;;;;17.20;16.10;;;0.30;22.70;;;;;;4996139;28;20234;-50
2023/12/03 05:40:54;;;;;;;19.00;17.83;;;0.30;23.20;;;;;;4996211;28;20434;-51
2023/12/03 05:43:20;;;;;;;17.73;16.73;;;0.30;23.50;;;;;;4995989;28;20481;-52
2023/12/03 05:45:45;;;;;;;17.40;16.40;;;0.30;23.20;;;;;;4995617;28;20181;-52
2023/12/03 05:48:11;;;;;;;18.53;17.33;;;0.30;23.50;;;;;;4995907;28;20205;-51
2023/12/03 05:50:37;;;;;;;17.60;16.60;;;0.30;23.20;;;;;;4995502;28;20192;-51
2023/12/03 05:53:02;;;;;;;16.80;15.60;;;0.30;23.00;;;;;;4995903;28;20419;-51
2023/12/03 05:55:28;;;;;;;17.90;16.80;;;0.50;22.50;;;;;;4995445;28;20175;-49
2023/12/03 05:57:54;;;;;;;18.73;17.53;;;0.50;21.80;;;;;;4998525;28;20234;-50
2023/12/03 06:00:19;;;;;;;18.27;17.07;;;0.30;22.00;;;;;;5015245;28;20177;-50
2023/12/03 06:02:45;;;;;;;18.70;17.60;;;0.20;22.70;;;;;;5015330;28;20181;-52
2023/12/03 06:05:11;;;;;;;19.33;18.10;;;0.10;22.70;;;;;;5006723;28;20271;-52
2023/12/03 06:07:37;;;;;;;18.93;17.80;;;0.00;22.80;;;;;;5008056;28;20480;-51
2023/12/03 06:10:03;;;;;;;18.47;17.37;;;0.10;22.40;;;;;;5031981;28;20454;-54
2023/12/03 06:12:29;;;;;;;18.45;17.15;;;0.10;22.40;;;;;;5014165;28;20177;-52
2023/12/03 06:14:55;;;;;;;18.23;17.07;;;0.20;22.60;;;;;;5014166;28;20249;-52
2023/12/03 06:17:21;;;;;;;20.15;18.85;;;0.20;22.10;;;;;;5032690;28;20184;-54
2023/12/03 06:19:46;;;;;;;19.00;17.70;;;0.30;22.80;;;;;;5014882;28;20177;-50
2023/12/03 06:22:12;;;;;;;19.23;17.93;;;0.40;22.60;;;;;;5014719;28;20577;-51
2023/12/03 06:24:37;;;;;;;19.33;17.80;;;0.50;22.30;;;;;;5014371;28;20732;-48
2023/12/03 06:27:03;;;;;;;18.20;16.90;;;0.50;21.60;;;;;;5014850;28;20197;-50
2023/12/03 06:29:29;;;;;;;18.60;17.50;;;0.60;21.40;;;;;;5014296;28;20192;-47
2023/12/03 06:31:55;;;;;;;19.70;18.33;;;0.70;21.70;;;;;;5032506;28;20942;-48
2023/12/03 06:34:21;;;;;;;19.80;18.60;;;0.50;21.40;;;;;;5014331;28;20223;-47
2023/12/03 06:36:46;;;;;;;18.10;17.00;;;0.30;22.30;;;;;;5013991;28;20176;-47
2023/12/03 06:39:12;;;;;;;19.40;18.20;;;0.40;21.90;;;;;;5030968;28;20535;-48
2023/12/03 06:41:38;;;;;;;18.07;16.97;;;0.30;22.00;;;;;;5014326;28;20231;-48
2023/12/03 06:44:04;;;;;;;19.30;18.02;;;0.30;21.90;;;;;;5014010;28;20310;-50
2023/12/03 06:46:30;;;;;;;19.53;18.33;;;0.20;22.30;;;;;;5014098;28;20601;-47
2023/12/03 06:48:55;;;;;;;20.00;18.80;;;0.20;22.30;;;;;;5014330;28;21002;-46
2023/12/03 06:51:21;;;;;;;20.27;19.07;;;0.40;22.40;;;;;;5014048;28;20195;-49
2023/12/03 06:53:47;;;;;;;18.63;17.33;;;0.50;21.80;;;;;;5031719;28;20530;-49
2023/12/03 06:56:12;;;;;;;19.07;17.77;;;0.60;21.50;;;;;;5013897;28;20264;-52
2023/12/03 06:58:38;;;;;;;18.97;17.67;;;0.60;21.40;;;;;;5030414;28;20207;-46
2023/12/03 07:01:04;;;;;;;19.45;18.25;;;0.50;21.30;;;;;;5033892;28;20263;-47
2023/12/03 07:03:30;;;;;;;19.17;18.00;;;0.40;22.00;;;;;;5016842;28;20271;-47
2023/12/03 07:05:56;;;;;;;20.37;19.10;;;0.30;22.40;;;;;;5012817;28;20422;-48
2023/12/03 07:08:21;;;;;;;19.77;18.40;;;0.10;22.90;;;;;;5013062;28;20287;-49
2023/12/03 07:10:47;;;;;;;19.63;18.33;;;-0.10;23.70;;;;;;5013314;28;20176;-49
2023/12/03 07:13:13;;;;;;;21.37;19.80;;;-0.20;24.00;;;;;;5013182;28;20226;-46
2023/12/03 07:15:38;;;;;;;21.87;20.47;;;-0.10;23.80;;;;;;5013532;28;20668;-50
2023/12/03 07:18:04;;;;;;;21.20;19.80;;;-0.10;23.90;;;;;;5013711;28;20184;-46
2023/12/03 07:20:30;;;;;;;21.33;19.93;;;0.00;23.00;;;;;;5012885;28;20771;-48
2023/12/03 07:22:55;;;;;;;19.63;18.43;;;0.10;22.70;;;;;;5013142;28;20317;-49
2023/12/03 07:25:22;;;;;;;21.10;19.70;;;0.00;23.30;;;;;;5012223;28;20176;-46
2023/12/03 07:27:48;;;;;;;19.60;18.40;;;0.30;22.90;;;;;;5012695;28;20532;-47
2023/12/03 07:30:14;;;;;;;19.10;17.90;;;0.60;21.50;;;;;;5012990;28;20412;-46
2023/12/03 07:32:40;;;;;;;19.27;18.07;;;0.50;21.20;;;;;;5013090;28;20558;-46
2023/12/03 07:35:05;;;;;;;20.83;19.43;;;0.60;21.30;;;;;;5012510;28;20326;-48
2023/12/03 07:37:31;;;;;;;18.90;17.73;;;0.70;21.30;;;;;;5026637;28;20247;-48
2023/12/03 07:39:57;;;;;;;20.87;19.47;;;0.80;20.90;;;;;;5013507;28;20412;-46
2023/12/03 07:42:25;;;;;;;19.33;18.03;;;0.60;21.40;;;;;;5013420;28;20179;-47
2023/12/03 07:44:50;;;;;;;19.83;18.53;;;0.70;21.20;;;;;;5013212;28;20188;-48
2023/12/03 07:47:16;;;;;;;21.20;19.80;;;0.70;20.90;;;;;;5013503;28;20964;-46
2023/12/03 07:49:43;;;;;;;20.10;18.80;;;0.50;20.70;;;;;;5013114;28;20239;-49
2023/12/03 07:52:08;;;;;;;20.88;19.50;;;0.30;20.90;;;;;;5014001;28;20182;-48
2023/12/03 07:54:34;;;;;;;21.90;20.50;;;0.20;21.80;;;;;;5013642;28;20535;-47
2023/12/03 07:57:00;;;;;;;22.03;20.40;;;0.50;21.70;;;;;;5028095;28;20180;-47
2023/12/03 07:59:25;;;;;;;20.80;19.43;;;0.70;21.30;;;;;;5013678;28;20180;-47
2023/12/03 08:01:51;;;;;;;19.10;17.90;;;1.10;20.70;;;;;;5016678;28;20197;-47
2023/12/03 08:04:16;;;;;;;20.20;18.80;;;1.30;19.80;;;;;;5032344;28;20259;-47
2023/12/03 08:06:42;;;;;;;18.90;17.60;;;1.40;20.20;;;;;;5036280;28;20172;-46
2023/12/03 08:09:08;;;;;;;20.40;19.20;;;1.50;19.70;;;;;;5055082;28;20200;-49
2023/12/03 08:11:33;;;;;;;20.37;19.00;;;1.50;19.30;;;;;;5038171;28;20191;-48
2023/12/03 08:13:59;;;;;;;19.83;18.43;;;1.60;19.00;;;;;;5017215;28;20225;-48
2023/12/03 08:16:24;;;;;;;22.20;20.70;;;1.60;18.60;;;;;;5016146;28;20176;-48
2023/12/03 08:18:50;;;;;;;20.07;18.77;;;1.40;19.70;;;;;;5015894;28;20278;-50
2023/12/03 08:21:16;;;;;;;19.60;18.20;;;1.50;20.00;;;;;;5017219;28;20277;-47
2023/12/03 08:23:41;;;;;;;19.23;18.13;;;1.70;19.50;;;;;;5016920;28;20208;-50
2023/12/03 08:26:08;;;;;;;20.67;19.37;;;1.90;19.20;;;;;;5016452;28;20188;-51
2023/12/03 08:28:33;;;;;;;20.37;18.87;;;1.80;18.80;;;;;;5015234;28;20450;-50
2023/12/03 08:31:00;;;;;;;18.70;17.47;;;1.80;19.40;;;;;;5015144;28;20434;-49
2023/12/03 08:33:25;;;;;;;19.30;18.00;;;1.90;18.80;;;;;;5014762;28;20179;-49
2023/12/03 08:35:51;;;;;;;19.53;18.23;;;1.90;18.80;;;;;;5014677;28;20411;-52
2023/12/03 08:38:16;;;;;;;19.17;17.97;;;1.60;18.70;;;;;;5015174;28;20711;-50
2023/12/03 08:40:42;;;;;;;19.80;18.23;;;1.40;19.50;;;;;;5014968;28;20201;-51
2023/12/03 08:43:08;;;;;;;20.77;19.37;;;1.20;19.70;;;;;;5015816;28;20182;-49
2023/12/03 08:45:34;;;;;;;21.90;20.40;;;1.00;20.30;;;;;;5016254;28;20191;-48
2023/12/03 08:48:02;;;;;;;20.93;19.40;;;1.30;20.70;;;;;;5016580;28;20268;-47
2023/12/03 08:50:31;;;;;;;20.67;19.30;;;1.30;20.00;;;;;;5016298;28;20427;-51
2023/12/03 08:52:57;;;;;;;20.10;18.60;;;1.20;19.50;;;;;;5016459;28;20412;-50
2023/12/03 08:55:23;;;;;;;20.77;19.27;;;1.10;20.60;;;;;;5015910;28;20424;-51
2023/12/03 08:57:49;;;;;;;20.07;18.77;;;1.30;20.50;;;;;;5016026;28;20431;-49
2023/12/03 09:00:16;;;;;;;20.67;19.07;;;1.60;19.50;;;;;;5016501;28;20179;-48
2023/12/03 09:02:45;;;;;;;21.00;19.50;;;1.70;19.10;;;;;;5016361;28;20246;-51
2023/12/03 09:05:12;;;;;;;22.53;21.03;;;1.60;19.20;;;;;;5015455;28;20782;-49
2023/12/03 09:07:37;;;;;;;22.07;20.57;;;1.70;19.00;;;;;;5016183;28;20817;-49
2023/12/03 09:10:04;;;;;;;20.43;19.00;;;1.40;19.60;;;;;;5016321;28;20408;-48
2023/12/03 09:12:29;;;;;;;20.43;19.07;;;1.20;19.90;;;;;;5015801;28;20177;-48
2023/12/03 09:14:56;;;;;;;20.43;19.13;;;1.20;20.30;;;;;;5015793;28;20638;-48
2023/12/03 09:17:22;;;;;;;20.98;19.55;;;1.20;20.40;;;;;;5015649;28;20181;-49
2023/12/03 09:19:47;;;;;;;19.27;17.97;;;1.10;19.80;;;;;;5015741;28;20177;-49
2023/12/03 09:22:13;;;;;;;20.90;19.50;;;1.10;20.30;;;;;;5015883;28;20505;-48
2023/12/03 09:24:39;;;;;;;23.33;21.73;;;0.80;21.40;;;;;;5015218;28;20173;-48
2023/12/03 09:27:05;;;;;;;20.33;19.00;;;0.60;21.70;;;;;;5015700;28;20180;-49
2023/12/03 09:29:30;;;;;;;21.70;20.10;;;0.50;21.90;;;;;;5015738;28;20420;-48
2023/12/03 09:31:56;;;;;;;22.57;20.97;;;0.50;23.30;;;;;;5033959;28;20404;-48
2023/12/03 09:34:22;;;;;;;20.37;19.07;;;0.80;23.70;;;;;;5016241;28;20183;-50
2023/12/03 09:36:48;;;;;;;20.75;19.45;;;1.10;22.70;;;;;;5033215;28;20216;-48
2023/12/03 09:39:13;;;;;;;21.33;19.93;;;1.20;21.20;;;;;;5015709;28;20207;-52
2023/12/03 09:41:48;;;;;;;21.60;20.00;;;1.20;21.10;;;;;;5015171;28;20718;-52
2023/12/03 09:44:31;;;;;;;22.70;21.17;;;1.10;21.30;;;;;;5015275;28;20221;-48
2023/12/03 09:46:58;;;;;;;39.70;36.47;;;1.20;21.80;;;;;;5015562;28;20411;-51
2023/12/03 09:49:24;;;;;;;22.37;20.87;;;1.50;22.10;;;;;;5015112;28;20447;-50
2023/12/03 09:51:51;;;;;;;22.67;21.13;;;1.50;21.70;;;;;;5015222;28;20435;-48
2023/12/03 09:54:18;;;;;;;22.67;21.07;;;1.50;20.90;;;;;;5015057;28;20411;-54
2023/12/03 09:56:46;;;;;;;22.23;20.63;;;1.50;21.20;;;;;;5014707;28;20462;-49
2023/12/03 09:59:14;;;;;;;21.70;20.10;;;1.60;21.10;;;;;;5015352;28;20916;-52
2023/12/03 10:01:41;;;;;;;22.67;20.93;;;1.70;21.20;;;;;;5014885;28;20423;-50
2023/12/03 10:04:07;;;;;;;22.63;20.83;;;1.40;21.80;;;;;;5014722;28;20431;-52
2023/12/03 10:06:43;;;;;;;21.23;19.77;;;1.50;21.70;;;;;;5014670;28;20416;-51
2023/12/03 10:09:08;;;;;;;24.53;22.73;;;1.40;22.00;;;;;;5030529;28;20461;-53
2023/12/03 10:11:44;;;;;;;23.30;21.70;;;1.50;21.90;;;;;;5034078;28;20978;-51
2023/12/03 10:14:12;;;;;;;23.60;21.80;;;1.40;22.60;;;;;;5047535;28;20422;-52
2023/12/03 10:16:39;;;;;;;23.10;21.50;;;1.10;22.40;;;;;;5030287;28;20179;-51
2023/12/03 10:19:05;;;;;;;22.38;20.98;;;1.10;22.80;;;;;;5017005;28;20510;-49
2023/12/03 10:21:30;;;;;;;22.17;20.52;;;1.20;22.70;;;;;;5031778;28;20184;-52
2023/12/03 10:24:04;;;;;;;22.27;20.77;;;1.20;22.70;;;;;;5014602;28;20187;-49
2023/12/03 10:26:30;;;;;;;21.60;19.97;;;1.50;23.00;;;;;;5022970;28;20513;-50
2023/12/03 10:28:56;;;;;;;22.23;20.73;;;1.70;22.40;;;;;;5001143;28;20722;-50
2023/12/03 10:31:22;;;;;;;19.93;18.53;;;2.00;21.20;;;;;;5014674;28;20815;-56
2023/12/03 10:33:48;;;;;;;21.50;20.00;;;2.10;21.00;;;;;;5013827;28;20268;-53
2023/12/03 10:36:14;;;;;;;20.90;19.40;;;1.90;20.60;;;;;;5032177;28;20176;-51
2023/12/03 10:38:42;;;;;;;21.60;20.10;;;1.70;22.10;;;;;;5031945;28;20438;-50
2023/12/03 10:41:13;;;;;;;20.03;18.60;;;1.70;22.10;;;;;;5014082;28;20427;-53
2023/12/03 10:43:41;;;;;;;22.07;20.47;;;2.00;22.20;;;;;;5014010;28;20908;-53
2023/12/03 10:46:08;;;;;;;20.03;18.60;;;1.90;21.80;;;;;;5014359;28;20791;-52
2023/12/03 10:48:34;;;;;;;21.37;19.87;;;1.80;22.40;;;;;;5013923;28;20467;-53
2023/12/03 10:51:05;;;;;;;19.40;18.10;;;2.00;21.70;;;;;;5032111;28;20424;-59
2023/12/03 10:53:32;;;;;;;20.93;19.40;;;2.10;21.60;;;;;;5014299;28;20511;-49
2023/12/03 10:56:03;;;;;;;19.50;18.10;;;2.10;21.70;;;;;;5013904;28;20773;-54
2023/12/03 10:58:31;;;;;;;18.75;17.45;;;2.20;21.80;;;;;;5014270;28;20420;-48
2023/12/03 11:01:15;;;;;;;19.57;18.27;;;2.40;21.70;;;;;;5014205;28;20173;-49
2023/12/03 11:04:16;;;;;;;20.30;18.80;;;2.30;20.00;;;;;;5010559;28;21007;-51
2023/12/03 11:06:43;;;;;;;20.30;18.90;;;2.30;21.50;;;;;;5023586;28;20441;-50
2023/12/03 11:09:09;;;;;;;19.73;18.23;;;2.00;21.40;;;;;;5006800;28;20669;-51
2023/12/03 11:11:38;;;;;;;20.30;18.80;;;2.20;22.30;;;;;;5011725;28;20510;-53
2023/12/03 11:14:04;;;;;;;20.33;18.93;;;2.30;21.40;;;;;;5006021;28;20482;-55
2023/12/03 11:17:14;;;;;;;17.50;16.40;;;2.50;21.40;;;;;;5000447;28;20428;-50
2023/12/03 11:19:42;;;;;;;18.70;17.50;;;2.60;21.20;;;;;;5000310;28;20193;-53
2023/12/03 11:22:35;;;;;;;19.53;18.13;;;2.60;20.40;;;;;;5013989;28;20434;-52
2023/12/03 11:25:15;;;;;;;18.57;17.37;;;2.50;20.80;;;;;;4990298;28;20915;-52
2023/12/03 11:27:42;;;;;;;20.20;18.80;;;2.40;20.80;;;;;;5004444;28;20459;-49
2023/12/03 11:30:08;;;;;;;19.53;18.07;;;2.40;21.50;;;;;;5030208;28;20423;-52
2023/12/03 11:32:35;;;;;;;22.73;21.23;;;2.70;21.40;;;;;;5013214;28;20791;-53
2023/12/03 11:35:05;;;;;;;20.40;18.73;;;2.90;20.50;;;;;;5017400;28;20493;-53
2023/12/03 11:37:31;;;;;;;18.93;17.53;;;3.00;20.50;;;;;;5025304;28;20481;-53
2023/12/03 11:40:31;;;;;;;19.00;17.63;;;3.00;20.20;;;;;;5028931;28;20435;-52
2023/12/03 11:42:58;;;;;;;22.17;20.47;;;2.70;20.70;;;;;;5027582;28;20419;-54
2023/12/03 11:45:25;;;;;;;19.70;18.40;;;2.70;21.20;;;;;;5026605;28;20415;-54
2023/12/03 11:48:05;;;;;;;20.50;18.90;;;2.70;20.10;;;;;;5028672;28;20817;-52
2023/12/03 11:50:31;;;;;;;19.23;17.83;;;2.90;20.50;;;;;;5027917;28;20441;-54
2023/12/03 11:52:57;;;;;;;19.27;17.97;;;2.60;20.30;;;;;;5030936;28;20415;-52
2023/12/03 11:55:24;;;;;;;19.83;18.33;;;2.40;21.40;;;;;;5025604;28;20497;-51
2023/12/03 11:57:51;;;;;;;20.97;19.40;;;2.40;21.60;;;;;;5006670;28;20215;-52
2023/12/03 12:00:17;;;;;;;20.50;19.07;;;2.60;21.70;;;;;;5012106;28;20431;-53
2023/12/03 12:02:43;;;;;;;20.23;18.83;;;2.60;21.70;;;;;;5007936;28;20799;-50
2023/12/03 12:05:09;;;;;;;18.63;17.33;;;2.50;21.70;;;;;;5026522;28;20424;-54
2023/12/03 12:07:36;;;;;;;18.67;17.37;;;2.50;22.00;;;;;;5010799;28;20206;-50
2023/12/03 12:10:01;;;;;;;17.63;16.47;;;2.50;21.50;;;;;;5012462;28;20427;-49
2023/12/03 12:12:27;;;;;;;19.43;18.13;;;2.50;21.40;;;;;;5013188;28;20481;-53
2023/12/03 12:14:53;;;;;;;18.33;17.03;;;2.70;21.40;;;;;;5008244;28;20188;-50
2023/12/03 12:17:20;;;;;;;17.77;16.57;;;2.70;21.20;;;;;;5020567;28;20427;-49
2023/12/03 12:19:50;;;;;;;18.17;16.97;;;2.60;20.50;;;;;;5012942;28;20506;-51
2023/12/03 12:22:16;;;;;;;18.90;17.60;;;2.40;21.40;;;;;;5031218;28;20419;-54
2023/12/03 12:24:44;;;;;;;19.57;18.07;;;2.40;21.40;;;;;;5017950;28;20428;-52
2023/12/03 12:27:10;;;;;;;20.70;19.20;;;2.40;21.10;;;;;;5010978;28;20466;-54
2023/12/03 12:29:36;;;;;;;18.00;16.80;;;2.40;21.80;;;;;;5026473;28;20766;-54
2023/12/03 12:32:03;;;;;;;17.23;16.07;;;2.50;21.90;;;;;;5012709;28;20423;-50